createdAt,value
2018-06-21T00:00:54.295Z,20.42
2018-06-21T00:01:54.296Z,20.37
2018-06-21T00:02:54.302Z,20.31
2018-06-21T00:03:54.299Z,20.13
2018-06-21T00:04:54.300Z,20.15
2018-06-21T00:05:54.300Z,20.23
2018-06-21T00:06:54.296Z,20.22
2018-06-21T00:07:54.295Z,20.12
2018-06-21T00:08:54.295Z,20.13
2018-06-21T00:09:54.295Z,20.19
2018-06-21T00:10:54.300Z,20.10
2018-06-21T00:11:54.299Z,20.10
2018-06-21T00:12:54.294Z,20.16
2018-06-21T00:13:54.295Z,20.20
2018-06-21T00:14:54.299Z,20.16
2018-06-21T00:15:54.299Z,20.12
2018-06-21T00:16:54.300Z,20.07
2018-06-21T00:17:54.298Z,20.07
2018-06-21T00:18:54.295Z,20.01
2018-06-21T00:19:54.297Z,20.05
2018-06-21T00:20:54.294Z,20.05
2018-06-21T00:21:54.294Z,19.95
2018-06-21T00:22:54.298Z,19.89
2018-06-21T00:23:54.298Z,19.87
2018-06-21T00:24:54.298Z,19.79
2018-06-21T00:25:54.297Z,19.78
2018-06-21T00:26:54.293Z,19.79
2018-06-21T00:27:54.292Z,19.79
2018-06-21T00:28:54.295Z,19.76
2018-06-21T00:29:54.295Z,19.79
2018-06-21T00:30:54.292Z,19.68
2018-06-21T00:31:54.289Z,19.68
2018-06-21T00:32:54.290Z,19.71
2018-06-21T00:33:54.292Z,19.75
2018-06-21T00:34:54.296Z,19.60
2018-06-21T00:35:54.293Z,19.71
2018-06-21T00:36:54.293Z,19.60
2018-06-21T00:37:54.291Z,19.58
2018-06-21T00:38:54.288Z,19.42
2018-06-21T00:39:54.287Z,19.39
2018-06-21T00:40:54.287Z,19.46
2018-06-21T00:41:54.287Z,19.43
2018-06-21T00:42:54.290Z,19.31
2018-06-21T00:43:54.290Z,19.30
2018-06-21T00:44:54.284Z,19.34
2018-06-21T00:45:54.285Z,19.31
2018-06-21T00:46:54.289Z,19.25
2018-06-21T00:47:54.287Z,19.27
2018-06-21T00:48:54.286Z,19.27
2018-06-21T00:49:54.286Z,19.17
2018-06-21T00:50:54.283Z,19.15
2018-06-21T00:51:54.284Z,19.16
2018-06-21T00:52:54.279Z,19.10
2018-06-21T00:53:54.282Z,19.01
2018-06-21T00:54:54.282Z,19.01
2018-06-21T00:55:54.282Z,19.01
2018-06-21T00:56:54.282Z,19.05
2018-06-21T00:57:54.282Z,18.99
2018-06-21T00:58:54.276Z,19.01
2018-06-21T00:59:54.275Z,19.05
2018-06-21T01:00:54.280Z,18.96
2018-06-21T01:01:54.285Z,19.07
2018-06-21T01:02:54.278Z,18.96
2018-06-21T01:03:54.272Z,18.96
2018-06-21T01:04:54.271Z,18.94
2018-06-21T01:05:54.271Z,18.97
2018-06-21T01:06:54.275Z,18.94
2018-06-21T01:07:54.276Z,18.94
2018-06-21T01:08:54.274Z,18.90
2018-06-21T01:09:54.273Z,18.91
2018-06-21T01:10:54.268Z,18.89
2018-06-21T01:11:54.267Z,18.89
2018-06-21T01:12:54.266Z,18.87
2018-06-21T01:13:54.265Z,18.86
2018-06-21T01:14:54.270Z,18.89
2018-06-21T01:15:54.267Z,18.83
2018-06-21T01:16:54.262Z,18.87
2018-06-21T01:17:54.262Z,18.83
2018-06-21T01:18:54.265Z,18.76
2018-06-21T01:19:54.265Z,18.71
2018-06-21T01:20:54.265Z,18.71
2018-06-21T01:21:54.267Z,18.69
2018-06-21T01:22:54.260Z,18.71
2018-06-21T01:23:54.256Z,18.68
2018-06-21T01:24:54.256Z,18.72
2018-06-21T01:25:54.259Z,18.69
2018-06-21T01:26:54.263Z,18.71
2018-06-21T01:27:54.257Z,18.69
2018-06-21T01:28:54.257Z,18.66
2018-06-21T01:29:54.257Z,18.64
2018-06-21T01:30:54.250Z,18.59
2018-06-21T01:31:54.251Z,18.71
2018-06-21T01:32:54.256Z,18.59
2018-06-21T01:33:54.253Z,18.69
2018-06-21T01:34:54.247Z,18.57
2018-06-21T01:35:54.245Z,18.64
2018-06-21T01:36:54.245Z,18.66
2018-06-21T01:37:54.243Z,18.68
2018-06-21T01:38:54.247Z,18.66
2018-06-21T01:39:54.245Z,18.66
2018-06-21T01:40:54.246Z,18.64
2018-06-21T01:41:54.244Z,18.62
2018-06-21T01:42:54.239Z,18.60
2018-06-21T01:43:54.241Z,18.64
2018-06-21T01:44:54.236Z,18.66
2018-06-21T01:45:54.234Z,18.62
2018-06-21T01:46:54.239Z,18.64
2018-06-21T01:47:54.238Z,18.57
2018-06-21T01:48:54.236Z,18.64
2018-06-21T01:49:54.231Z,18.57
2018-06-21T01:50:54.235Z,18.68
2018-06-21T01:51:54.236Z,18.62
2018-06-21T01:52:54.234Z,18.62
2018-06-21T01:53:54.232Z,18.69
2018-06-21T01:54:54.226Z,18.68
2018-06-21T01:55:54.225Z,18.66
2018-06-21T01:56:54.224Z,18.64
2018-06-21T01:57:54.222Z,18.62
2018-06-21T01:58:54.227Z,18.60
2018-06-21T01:59:54.226Z,18.64
2018-06-21T02:00:54.223Z,18.65
2018-06-21T02:01:54.226Z,18.47
2018-06-21T02:02:54.218Z,18.57
2018-06-21T02:03:54.216Z,18.57
2018-06-21T02:04:54.219Z,18.50
2018-06-21T02:05:54.217Z,18.50
2018-06-21T02:06:54.212Z,18.49
2018-06-21T02:07:54.210Z,18.50
2018-06-21T02:08:54.210Z,18.49
2018-06-21T02:09:54.219Z,18.53
2018-06-21T02:10:54.213Z,18.51
2018-06-21T02:11:54.215Z,18.53
2018-06-21T02:12:54.210Z,18.46
2018-06-21T02:13:54.211Z,18.49
2018-06-21T02:14:54.204Z,18.46
2018-06-21T02:15:54.202Z,18.50
2018-06-21T02:16:54.200Z,18.53
2018-06-21T02:17:54.200Z,18.60
2018-06-21T02:18:54.204Z,18.57
2018-06-21T02:19:54.202Z,18.59
2018-06-21T02:20:54.197Z,18.57
2018-06-21T02:21:54.195Z,18.57
2018-06-21T02:22:54.199Z,18.60
2018-06-21T02:23:54.197Z,18.57
2018-06-21T02:24:54.196Z,18.56
2018-06-21T02:25:54.195Z,18.57
2018-06-21T02:26:54.190Z,18.50
2018-06-21T02:27:54.188Z,18.47
2018-06-21T02:28:54.186Z,18.50
2018-06-21T02:29:54.186Z,18.51
2018-06-21T02:30:54.191Z,18.42
2018-06-21T02:31:54.188Z,18.38
2018-06-21T02:32:54.186Z,18.31
2018-06-21T02:33:54.184Z,18.31
2018-06-21T02:34:54.180Z,18.41
2018-06-21T02:35:54.177Z,18.20
2018-06-21T02:36:54.180Z,18.25
2018-06-21T02:37:54.179Z,18.17
2018-06-21T02:38:54.173Z,18.17
2018-06-21T02:39:54.172Z,18.13
2018-06-21T02:40:54.172Z,18.09
2018-06-21T02:41:54.170Z,18.14
2018-06-21T02:42:54.175Z,18.17
2018-06-21T02:43:54.173Z,18.19
2018-06-21T02:44:54.169Z,18.13
2018-06-21T02:45:54.169Z,18.20
2018-06-21T02:46:54.165Z,18.14
2018-06-21T02:47:54.162Z,18.13
2018-06-21T02:48:54.160Z,18.21
2018-06-21T02:49:54.159Z,18.20
2018-06-21T02:50:54.163Z,18.11
2018-06-21T02:51:54.161Z,18.16
2018-06-21T02:52:54.153Z,18.13
2018-06-21T02:53:54.175Z,18.17
2018-06-21T02:54:54.157Z,18.05
2018-06-21T02:55:54.156Z,18.09
2018-06-21T02:56:54.153Z,18.13
2018-06-21T02:57:54.151Z,18.14
2018-06-21T02:58:54.146Z,18.21
2018-06-21T02:59:54.144Z,18.25
2018-06-21T03:00:54.141Z,18.17
2018-06-21T03:01:54.143Z,18.25
2018-06-21T03:02:54.144Z,18.20
2018-06-21T03:03:54.194Z,18.21
2018-06-21T03:04:54.144Z,18.29
2018-06-21T03:05:54.140Z,18.14
2018-06-21T03:06:54.138Z,18.26
2018-06-21T03:07:54.131Z,18.25
2018-06-21T03:08:54.135Z,18.13
2018-06-21T03:09:54.134Z,18.17
2018-06-21T03:10:54.129Z,18.23
2018-06-21T03:11:54.126Z,18.26
2018-06-21T03:12:54.127Z,18.36
2018-06-21T03:13:54.123Z,18.32
2018-06-21T03:14:54.126Z,18.49
2018-06-21T03:15:54.125Z,18.44
2018-06-21T03:16:54.124Z,18.50
2018-06-21T03:17:54.122Z,18.38
2018-06-21T03:18:54.116Z,18.49
2018-06-21T03:19:54.113Z,18.47
2018-06-21T03:20:54.112Z,18.53
2018-06-21T03:21:54.111Z,18.47
2018-06-21T03:22:54.116Z,18.50
2018-06-21T03:23:54.112Z,18.54
2018-06-21T03:24:54.109Z,18.51
2018-06-21T03:25:54.106Z,18.54
2018-06-21T03:26:54.110Z,18.56
2018-06-21T03:27:54.107Z,18.53
2018-06-21T03:28:54.105Z,18.64
2018-06-21T03:29:54.104Z,18.54
2018-06-21T03:30:54.099Z,18.53
2018-06-21T03:31:54.099Z,18.56
2018-06-21T03:32:54.096Z,18.60
2018-06-21T03:33:54.094Z,18.60
2018-06-21T03:34:54.097Z,18.62
2018-06-21T03:35:54.095Z,18.62
2018-06-21T03:36:54.095Z,18.64
2018-06-21T03:37:54.094Z,18.60
2018-06-21T03:38:54.088Z,18.57
2018-06-21T03:39:54.086Z,18.56
2018-06-21T03:40:54.089Z,18.60
2018-06-21T03:41:54.088Z,18.65
2018-06-21T03:42:54.082Z,18.64
2018-06-21T03:43:54.084Z,18.65
2018-06-21T03:44:54.079Z,18.65
2018-06-21T03:45:54.077Z,18.62
2018-06-21T03:46:54.080Z,18.66
2018-06-21T03:47:54.077Z,18.68
2018-06-21T03:48:54.076Z,18.65
2018-06-21T03:49:54.078Z,18.64
2018-06-21T03:50:54.073Z,18.66
2018-06-21T03:51:54.069Z,18.71
2018-06-21T03:52:54.068Z,18.69
2018-06-21T03:53:54.070Z,18.78
2018-06-21T03:54:54.071Z,18.79
2018-06-21T03:55:54.069Z,18.84
2018-06-21T03:56:54.062Z,18.78
2018-06-21T03:57:54.061Z,18.82
2018-06-21T03:58:54.064Z,18.86
2018-06-21T03:59:54.062Z,18.90
2018-06-21T04:00:54.061Z,18.87
2018-06-21T04:01:54.060Z,18.90
2018-06-21T04:02:54.057Z,18.91
2018-06-21T04:03:54.053Z,18.91
2018-06-21T04:04:54.050Z,18.96
2018-06-21T04:05:54.051Z,18.99
2018-06-21T04:06:54.054Z,19.01
2018-06-21T04:07:54.052Z,19.01
2018-06-21T04:08:54.052Z,19.01
2018-06-21T04:09:54.052Z,19.01
2018-06-21T04:10:54.045Z,19.05
2018-06-21T04:11:54.043Z,19.09
2018-06-21T04:12:54.048Z,19.15
2018-06-21T04:13:54.046Z,19.21
2018-06-21T04:14:54.040Z,19.31
2018-06-21T04:15:54.039Z,19.31
2018-06-21T04:16:54.038Z,19.40
2018-06-21T04:17:54.038Z,19.34
2018-06-21T04:18:54.041Z,19.38
2018-06-21T04:19:54.039Z,19.39
2018-06-21T04:20:54.039Z,19.43
2018-06-21T04:21:54.037Z,19.38
2018-06-21T04:22:54.033Z,19.46
2018-06-21T04:23:54.032Z,19.45
2018-06-21T04:24:54.031Z,19.47
2018-06-21T04:25:54.031Z,19.55
2018-06-21T04:26:54.034Z,19.58
2018-06-21T04:27:54.036Z,19.61
2018-06-21T04:28:54.031Z,19.58
2018-06-21T04:29:54.027Z,19.58
2018-06-21T04:30:54.037Z,19.58
2018-06-21T04:31:54.033Z,19.62
2018-06-21T04:32:54.033Z,19.68
2018-06-21T04:33:54.033Z,19.72
2018-06-21T04:34:54.023Z,19.65
2018-06-21T04:35:54.023Z,19.68
2018-06-21T04:36:54.024Z,19.65
2018-06-21T04:37:54.038Z,19.65
2018-06-21T04:38:54.024Z,19.78
2018-06-21T04:39:54.026Z,19.78
2018-06-21T04:40:54.026Z,19.72
2018-06-21T04:41:54.028Z,19.87
2018-06-21T04:42:54.020Z,19.80
2018-06-21T04:43:54.018Z,19.87
2018-06-21T04:44:54.025Z,19.82
2018-06-21T04:45:54.128Z,19.82
2018-06-21T04:46:54.019Z,19.79
2018-06-21T04:47:54.016Z,19.75
2018-06-21T04:48:54.015Z,19.80
2018-06-21T04:49:54.016Z,19.76
2018-06-21T04:50:54.020Z,19.76
2018-06-21T04:51:54.018Z,19.76
2018-06-21T04:52:54.019Z,19.76
2018-06-21T04:53:54.019Z,19.65
2018-06-21T04:54:54.013Z,19.80
2018-06-21T04:55:54.013Z,19.67
2018-06-21T04:56:54.012Z,19.67
2018-06-21T04:57:54.012Z,19.65
2018-06-21T04:58:54.016Z,19.64
2018-06-21T04:59:54.015Z,19.67
2018-06-21T05:00:54.011Z,19.67
2018-06-21T05:01:54.011Z,19.68
2018-06-21T05:02:54.015Z,19.70
2018-06-21T05:03:54.014Z,19.58
2018-06-21T05:04:54.013Z,19.61
2018-06-21T05:05:54.013Z,19.71
2018-06-21T05:06:54.008Z,19.58
2018-06-21T05:07:54.007Z,19.53
2018-06-21T05:08:54.007Z,19.53
2018-06-21T05:09:54.007Z,19.45
2018-06-21T05:10:54.012Z,19.46
2018-06-21T05:11:54.011Z,19.50
2018-06-21T05:12:54.009Z,19.53
2018-06-21T05:13:54.008Z,19.47
2018-06-21T05:14:54.005Z,19.49
2018-06-21T05:15:54.004Z,19.43
2018-06-21T05:16:54.008Z,19.39
2018-06-21T05:17:54.007Z,19.40
2018-06-21T05:18:54.003Z,19.45
2018-06-21T05:19:54.004Z,19.40
2018-06-21T05:20:54.001Z,19.46
2018-06-21T05:21:54.001Z,19.49
2018-06-21T05:22:54.009Z,19.45
2018-06-21T05:23:54.004Z,19.42
2018-06-21T05:24:53.994Z,19.47
2018-06-21T05:25:54.004Z,19.45
2018-06-21T05:26:53.998Z,19.47
2018-06-21T05:27:53.986Z,19.43
2018-06-21T05:28:53.986Z,19.40
2018-06-21T05:29:53.986Z,19.46
2018-06-21T05:30:53.991Z,19.43
2018-06-21T05:31:53.989Z,19.39
2018-06-21T05:32:53.983Z,19.45
2018-06-21T05:33:53.983Z,19.49
2018-06-21T05:34:53.986Z,19.57
2018-06-21T05:35:53.985Z,19.49
2018-06-21T05:36:53.986Z,19.53
2018-06-21T05:37:53.986Z,19.55
2018-06-21T05:38:53.980Z,19.61
2018-06-21T05:39:53.981Z,19.49
2018-06-21T05:40:53.978Z,19.49
2018-06-21T05:41:53.977Z,19.52
2018-06-21T05:42:53.981Z,19.47
2018-06-21T05:43:53.983Z,19.49
2018-06-21T05:44:53.979Z,19.52
2018-06-21T05:45:53.978Z,19.47
2018-06-21T05:46:53.974Z,19.46
2018-06-21T05:47:53.972Z,19.49
2018-06-21T05:48:53.977Z,19.42
2018-06-21T05:49:53.976Z,19.43
2018-06-21T05:50:53.977Z,19.47
2018-06-21T05:51:53.970Z,19.43
2018-06-21T05:52:53.970Z,19.46
2018-06-21T05:53:53.969Z,19.30
2018-06-21T05:54:53.974Z,19.34
2018-06-21T05:55:53.972Z,19.35
2018-06-21T05:56:53.972Z,19.30
2018-06-21T05:57:53.970Z,19.23
2018-06-21T05:58:53.965Z,19.24
2018-06-21T05:59:53.963Z,19.16
2018-06-21T06:00:53.964Z,19.10
2018-06-21T06:01:53.979Z,19.10
2018-06-21T06:02:53.968Z,19.07
2018-06-21T06:03:53.968Z,19.06
2018-06-21T06:04:53.964Z,19.05
2018-06-21T06:05:53.961Z,19.06
2018-06-21T06:06:53.965Z,19.09
2018-06-21T06:07:53.962Z,19.09
2018-06-21T06:08:53.961Z,19.10
2018-06-21T06:09:53.961Z,19.07
2018-06-21T06:10:53.956Z,19.09
2018-06-21T06:11:53.954Z,19.05
2018-06-21T06:12:53.954Z,18.96
2018-06-21T06:13:53.953Z,19.01
2018-06-21T06:14:53.957Z,18.97
2018-06-21T06:15:53.955Z,19.01
2018-06-21T06:16:53.955Z,18.99
2018-06-21T06:17:53.955Z,18.99
2018-06-21T06:18:53.951Z,19.05
2018-06-21T06:19:53.982Z,19.02
2018-06-21T06:20:53.951Z,19.06
2018-06-21T06:21:53.951Z,19.16
2018-06-21T06:22:53.945Z,19.17
2018-06-21T06:23:53.945Z,19.17
2018-06-21T06:24:53.944Z,19.23
2018-06-21T06:25:53.942Z,19.25
2018-06-21T06:26:53.947Z,19.16
2018-06-21T06:27:53.945Z,19.20
2018-06-21T06:28:53.945Z,19.15
2018-06-21T06:29:53.945Z,19.21
2018-06-21T06:30:53.940Z,19.21
2018-06-21T06:31:53.938Z,19.21
2018-06-21T06:32:53.938Z,19.16
2018-06-21T06:33:53.937Z,19.16
2018-06-21T06:34:53.941Z,19.23
2018-06-21T06:35:53.941Z,19.28
2018-06-21T06:36:53.935Z,19.17
2018-06-21T06:37:53.935Z,19.23
2018-06-21T06:38:53.939Z,19.28
2018-06-21T06:39:53.939Z,19.24
2018-06-21T06:40:53.936Z,19.30
2018-06-21T06:41:53.936Z,19.43
2018-06-21T06:42:53.932Z,19.50
2018-06-21T06:43:53.930Z,19.57
2018-06-21T06:44:53.929Z,19.61
2018-06-21T06:45:53.929Z,19.71
2018-06-21T06:46:53.935Z,19.75
2018-06-21T06:47:53.935Z,19.75
2018-06-21T06:48:53.932Z,19.92
2018-06-21T06:49:53.933Z,19.95
2018-06-21T06:50:53.927Z,20.01
2018-06-21T06:51:53.969Z,20.07
2018-06-21T06:52:53.933Z,20.02
2018-06-21T06:53:53.931Z,20.12
2018-06-21T06:54:53.928Z,20.23
2018-06-21T06:55:53.926Z,20.25
2018-06-21T06:56:53.926Z,20.34
2018-06-21T06:57:53.929Z,20.34
2018-06-21T06:58:53.930Z,20.50
2018-06-21T06:59:53.931Z,20.46
2018-06-21T07:00:53.932Z,20.46
2018-06-21T07:01:53.931Z,20.63
2018-06-21T07:02:53.928Z,21.00
2018-06-21T07:03:53.941Z,21.37
2018-06-21T07:04:53.930Z,21.58
2018-06-21T07:05:53.929Z,21.56
2018-06-21T07:06:53.933Z,21.67
2018-06-21T07:07:53.933Z,21.79
2018-06-21T07:08:53.930Z,21.94
2018-06-21T07:09:53.932Z,22.04
2018-06-21T07:10:53.936Z,22.21
2018-06-21T07:11:53.936Z,22.44
2018-06-21T07:12:53.940Z,22.45
2018-06-21T07:13:53.942Z,22.61
2018-06-21T07:14:53.938Z,22.66
2018-06-21T07:15:53.940Z,22.59
2018-06-21T07:16:53.940Z,22.57
2018-06-21T07:17:53.942Z,22.51
2018-06-21T07:18:53.949Z,22.31
2018-06-21T07:19:53.951Z,22.30
2018-06-21T07:20:53.951Z,22.21
2018-06-21T07:21:53.954Z,22.12
2018-06-21T07:22:53.952Z,21.89
2018-06-21T07:23:53.954Z,21.79
2018-06-21T07:24:53.959Z,21.64
2018-06-21T07:25:53.961Z,21.55
2018-06-21T07:26:53.959Z,21.61
2018-06-21T07:27:53.961Z,21.51
2018-06-21T07:28:53.962Z,21.36
2018-06-21T07:29:53.964Z,21.12
2018-06-21T07:30:53.972Z,21.00
2018-06-21T07:31:53.971Z,20.88
2018-06-21T07:32:53.974Z,20.76
2018-06-21T07:33:53.974Z,20.51
2018-06-21T07:34:53.972Z,20.48
2018-06-21T07:35:53.972Z,20.42
2018-06-21T07:36:53.973Z,20.35
2018-06-21T07:37:53.974Z,20.31
2018-06-21T07:38:53.984Z,20.15
2018-06-21T07:39:53.980Z,19.95
2018-06-21T07:40:53.977Z,19.89
2018-06-21T07:41:53.978Z,19.80
2018-06-21T07:42:53.983Z,19.79
2018-06-21T07:43:53.983Z,19.60
2018-06-21T07:44:53.985Z,19.67
2018-06-21T07:45:53.985Z,19.57
2018-06-21T07:46:53.999Z,19.58
2018-06-21T07:47:53.981Z,19.53
2018-06-21T07:48:53.981Z,19.58
2018-06-21T07:49:53.982Z,19.68
2018-06-21T07:50:53.987Z,19.97
2018-06-21T07:51:53.988Z,20.05
2018-06-21T07:52:53.986Z,20.34
2018-06-21T07:53:54.051Z,20.72
2018-06-21T07:54:53.983Z,21.03
2018-06-21T07:55:53.985Z,21.12
2018-06-21T07:56:53.988Z,21.31
2018-06-21T07:57:53.988Z,21.70
2018-06-21T07:58:53.986Z,22.11
2018-06-21T07:59:53.986Z,22.02
2018-06-21T08:00:53.987Z,22.17
2018-06-21T08:01:53.990Z,22.20
2018-06-21T08:02:53.995Z,22.26
2018-06-21T08:03:53.998Z,22.35
2018-06-21T08:04:53.992Z,22.44
2018-06-21T08:05:53.999Z,22.56
2018-06-21T08:06:54.003Z,22.56
2018-06-21T08:07:54.002Z,22.46
2018-06-21T08:08:54.004Z,22.17
2018-06-21T08:09:54.008Z,21.90
2018-06-21T08:10:54.009Z,21.83
2018-06-21T08:11:54.007Z,21.68
2018-06-21T08:12:54.067Z,21.59
2018-06-21T08:13:54.017Z,21.70
2018-06-21T08:14:54.017Z,21.90
2018-06-21T08:15:54.016Z,21.90
2018-06-21T08:16:54.019Z,22.15
2018-06-21T08:17:54.022Z,22.46
2018-06-21T08:18:54.030Z,22.97
2018-06-21T08:19:54.030Z,22.97
2018-06-21T08:20:54.035Z,23.34
2018-06-21T08:21:54.038Z,23.41
2018-06-21T08:22:54.035Z,23.42
2018-06-21T08:23:54.037Z,23.38
2018-06-21T08:24:54.041Z,23.49
2018-06-21T08:25:54.046Z,23.52
2018-06-21T08:26:54.150Z,23.64
2018-06-21T08:27:54.055Z,24.09
2018-06-21T08:28:54.053Z,24.45
2018-06-21T08:29:54.056Z,25.16
2018-06-21T08:30:54.064Z,25.41
2018-06-21T08:31:54.067Z,26.96
2018-06-21T08:32:54.071Z,27.86
2018-06-21T08:33:54.077Z,28.17
2018-06-21T08:34:54.077Z,27.91
2018-06-21T08:35:54.084Z,27.11
2018-06-21T08:36:54.088Z,26.83
2018-06-21T08:37:54.094Z,26.34
2018-06-21T08:38:54.110Z,26.28
2018-06-21T08:39:54.111Z,26.50
2018-06-21T08:40:54.114Z,26.81
2018-06-21T08:41:54.121Z,26.88
2018-06-21T08:42:54.123Z,27.40
2018-06-21T08:43:54.128Z,26.59
2018-06-21T08:44:54.139Z,25.74
2018-06-21T08:45:54.200Z,25.36
2018-06-21T08:46:54.148Z,25.12
2018-06-21T08:47:54.154Z,24.84
2018-06-21T08:48:54.161Z,24.33
2018-06-21T08:49:54.167Z,24.16
2018-06-21T08:50:54.179Z,23.94
2018-06-21T08:51:54.212Z,23.96
2018-06-21T08:52:54.190Z,23.71
2018-06-21T08:53:54.196Z,23.68
2018-06-21T08:54:54.198Z,24.64
2018-06-21T08:55:54.202Z,24.37
2018-06-21T08:56:54.208Z,24.21
2018-06-21T08:57:54.215Z,23.94
2018-06-21T08:58:54.224Z,24.34
2018-06-21T08:59:54.229Z,24.84
2018-06-21T09:00:54.231Z,25.29
2018-06-21T09:01:54.240Z,25.83
2018-06-21T09:02:54.247Z,25.67
2018-06-21T09:03:54.337Z,25.45
2018-06-21T09:04:54.258Z,25.45
2018-06-21T09:05:54.265Z,25.96
2018-06-21T09:06:54.265Z,25.57
2018-06-21T09:07:54.270Z,26.19
2018-06-21T09:08:54.279Z,25.90
2018-06-21T09:09:54.283Z,25.53
2018-06-21T09:10:54.296Z,25.36
2018-06-21T09:11:54.301Z,24.97
2018-06-21T09:12:54.310Z,25.51
2018-06-21T09:13:54.313Z,25.61
2018-06-21T09:14:54.315Z,25.66
2018-06-21T09:15:54.322Z,25.64
2018-06-21T09:16:54.333Z,27.43
2018-06-21T09:17:54.339Z,28.43
2018-06-21T09:18:54.342Z,27.88
2018-06-21T09:19:54.348Z,27.33
2018-06-21T09:20:54.355Z,28.03
2018-06-21T09:21:54.362Z,29.74
2018-06-21T09:22:54.376Z,30.82
2018-06-21T09:23:54.383Z,30.42
2018-06-21T09:24:54.392Z,30.34
2018-06-21T09:25:54.401Z,30.30
2018-06-21T09:26:54.409Z,29.54
2018-06-21T09:27:54.416Z,28.52
2018-06-21T09:28:54.431Z,27.84
2018-06-21T09:29:54.438Z,27.06
2018-06-21T09:30:54.452Z,26.64
2018-06-21T09:31:54.461Z,25.82
2018-06-21T09:32:54.466Z,25.85
2018-06-21T09:33:54.477Z,25.61
2018-06-21T09:34:54.489Z,26.65
2018-06-21T09:35:54.499Z,28.09
2018-06-21T09:36:54.506Z,29.63
2018-06-21T09:37:54.516Z,30.48
2018-06-21T09:38:54.520Z,31.60
2018-06-21T09:39:54.529Z,31.04
2018-06-21T09:40:54.540Z,30.61
2018-06-21T09:41:54.588Z,30.32
2018-06-21T09:42:54.566Z,29.45
2018-06-21T09:44:03.821Z,28.51
2018-06-21T09:44:54.588Z,27.61
2018-06-21T09:45:54.598Z,27.08
2018-06-21T09:46:54.627Z,26.32
2018-06-21T09:47:54.614Z,25.83
2018-06-21T09:48:54.631Z,25.19
2018-06-21T09:49:54.638Z,24.90
2018-06-21T09:50:54.643Z,26.46
2018-06-21T09:51:54.652Z,27.98
2018-06-21T09:52:54.660Z,28.70
2018-06-21T09:53:54.669Z,28.94
2018-06-21T09:54:54.683Z,28.30
2018-06-21T09:55:54.692Z,28.97
2018-06-21T09:56:54.705Z,28.61
2018-06-21T09:57:54.713Z,27.87
2018-06-21T09:58:54.719Z,27.21
2018-06-21T09:59:54.726Z,27.20
2018-06-21T10:00:54.736Z,26.54
2018-06-21T10:01:54.747Z,27.63
2018-06-21T10:02:54.763Z,28.51
2018-06-21T10:03:54.770Z,29.52
2018-06-21T10:04:54.776Z,30.60
2018-06-21T10:05:54.786Z,31.52
2018-06-21T10:06:54.801Z,31.22
2018-06-21T10:07:54.812Z,31.34
2018-06-21T10:08:54.823Z,32.31
2018-06-21T10:09:54.836Z,31.97
2018-06-21T10:10:54.845Z,32.83
2018-06-21T10:11:54.857Z,32.25
2018-06-21T10:12:54.871Z,32.19
2018-06-21T10:13:54.886Z,32.76
2018-06-21T10:14:54.904Z,32.66
2018-06-21T10:15:54.920Z,33.47
2018-06-21T10:16:54.932Z,33.62
2018-06-21T10:17:54.948Z,34.00
2018-06-21T10:18:54.959Z,34.23
2018-06-21T10:19:55.030Z,34.48
2018-06-21T10:20:54.995Z,34.08
2018-06-21T10:21:55.010Z,34.03
2018-06-21T10:22:55.022Z,33.20
2018-06-21T10:23:55.038Z,31.79
2018-06-21T10:24:55.055Z,31.30
2018-06-21T10:25:55.071Z,30.25
2018-06-21T10:26:55.092Z,31.13
2018-06-21T10:27:55.107Z,31.59
2018-06-21T10:28:55.123Z,30.73
2018-06-21T10:29:55.138Z,30.32
2018-06-21T10:30:55.147Z,29.58
2018-06-21T10:31:55.163Z,29.55
2018-06-21T10:32:55.176Z,30.51
2018-06-21T10:33:55.191Z,30.73
2018-06-21T10:34:55.266Z,30.15
2018-06-21T10:35:55.224Z,29.57
2018-06-21T10:36:55.233Z,29.05
2018-06-21T10:37:55.247Z,28.64
2018-06-21T10:38:55.266Z,28.69
2018-06-21T10:39:55.278Z,29.82
2018-06-21T10:40:55.292Z,30.10
2018-06-21T10:41:55.307Z,30.28
2018-06-21T10:42:55.314Z,30.32
2018-06-21T10:43:55.328Z,28.42
2018-06-21T10:44:55.340Z,28.83
2018-06-21T10:45:55.356Z,28.72
2018-06-21T10:46:55.372Z,29.15
2018-06-21T10:47:55.384Z,29.42
2018-06-21T10:48:55.397Z,29.63
2018-06-21T10:49:55.410Z,30.29
2018-06-21T10:50:55.417Z,30.79
2018-06-21T10:51:55.433Z,31.40
2018-06-21T10:52:55.448Z,32.19
2018-06-21T10:53:55.462Z,31.64
2018-06-21T10:54:55.473Z,31.42
2018-06-21T10:55:55.485Z,31.82
2018-06-21T10:56:55.501Z,32.54
2018-06-21T10:57:55.515Z,32.95
2018-06-21T10:58:55.534Z,32.66
2018-06-21T10:59:55.549Z,31.88
2018-06-21T11:00:55.563Z,32.19
2018-06-21T11:01:55.581Z,31.90
2018-06-21T11:02:55.589Z,31.97
2018-06-21T11:03:55.608Z,32.40
2018-06-21T11:04:55.618Z,32.35
2018-06-21T11:05:55.634Z,31.49
2018-06-21T11:06:55.655Z,31.20
2018-06-21T11:07:55.668Z,30.98
2018-06-21T11:08:55.680Z,31.49
2018-06-21T11:09:55.695Z,31.85
2018-06-21T11:10:55.716Z,31.35
2018-06-21T11:11:55.730Z,31.05
2018-06-21T11:12:55.746Z,31.30
2018-06-21T11:13:55.778Z,31.37
2018-06-21T11:14:55.775Z,31.12
2018-06-21T11:15:55.788Z,30.00
2018-06-21T11:16:55.841Z,29.26
2018-06-21T11:17:55.821Z,29.89
2018-06-21T11:18:55.841Z,30.34
2018-06-21T11:19:55.855Z,30.25
2018-06-21T11:20:55.873Z,30.06
2018-06-21T11:21:55.889Z,29.52
2018-06-21T11:22:55.897Z,29.47
2018-06-21T11:23:55.913Z,28.74
2018-06-21T11:24:55.930Z,28.21
2018-06-21T11:25:55.946Z,27.76
2018-06-21T11:26:55.954Z,26.91
2018-06-21T11:27:56.027Z,26.73
2018-06-21T11:28:55.987Z,26.41
2018-06-21T11:29:55.992Z,26.17
2018-06-21T11:30:56.010Z,26.19
2018-06-21T11:31:56.024Z,26.17
2018-06-21T11:32:56.038Z,25.85
2018-06-21T11:33:56.044Z,25.49
2018-06-21T11:34:56.056Z,25.36
2018-06-21T11:35:56.062Z,25.16
2018-06-21T11:36:56.073Z,24.92
2018-06-21T11:37:56.082Z,24.75
2018-06-21T11:38:56.096Z,24.61
2018-06-21T11:39:56.105Z,24.33
2018-06-21T11:40:56.110Z,24.15
2018-06-21T11:41:56.117Z,24.33
2018-06-21T11:42:56.131Z,24.34
2018-06-21T11:43:56.137Z,24.33
2018-06-21T11:44:56.145Z,23.96
2018-06-21T11:45:56.152Z,24.00
2018-06-21T11:46:56.155Z,24.14
2018-06-21T11:47:56.164Z,24.00
2018-06-21T11:48:56.169Z,23.87
2018-06-21T11:49:56.175Z,24.05
2018-06-21T11:50:56.186Z,23.89
2018-06-21T11:51:56.194Z,24.02
2018-06-21T11:52:56.203Z,23.96
2018-06-21T11:53:56.205Z,23.93
2018-06-21T11:54:56.205Z,24.04
2018-06-21T11:55:56.210Z,23.86
2018-06-21T11:56:56.221Z,24.05
2018-06-21T11:57:56.227Z,24.04
2018-06-21T11:58:56.226Z,23.93
2018-06-21T11:59:56.230Z,23.92
2018-06-21T12:00:56.239Z,24.06
2018-06-21T12:01:56.241Z,24.15
2018-06-21T12:02:56.250Z,24.12
2018-06-21T12:03:56.256Z,24.16
2018-06-21T12:04:56.261Z,24.26
2018-06-21T12:05:56.264Z,24.08
2018-06-21T12:06:56.264Z,24.06
2018-06-21T12:07:56.268Z,23.68
2018-06-21T12:08:56.273Z,23.74
2018-06-21T12:09:56.277Z,23.64
2018-06-21T12:10:56.286Z,23.42
2018-06-21T12:11:56.291Z,23.32
2018-06-21T12:12:56.292Z,23.31
2018-06-21T12:13:56.294Z,23.35
2018-06-21T12:14:56.304Z,23.34
2018-06-21T12:15:56.307Z,23.01
2018-06-21T12:16:56.309Z,23.16
2018-06-21T12:17:56.313Z,23.25
2018-06-21T12:18:56.314Z,23.32
2018-06-21T12:19:56.358Z,23.32
2018-06-21T12:20:56.324Z,23.06
2018-06-21T12:21:56.324Z,22.91
2018-06-21T12:22:56.333Z,22.82
2018-06-21T12:23:56.335Z,22.96
2018-06-21T12:24:56.344Z,23.21
2018-06-21T12:25:56.348Z,23.16
2018-06-21T12:26:56.342Z,23.15
2018-06-21T12:27:56.345Z,23.14
2018-06-21T12:28:56.352Z,23.29
2018-06-21T12:29:56.357Z,23.41
2018-06-21T12:30:56.355Z,23.38
2018-06-21T12:31:56.381Z,23.42
2018-06-21T12:32:56.364Z,23.42
2018-06-21T12:33:56.365Z,23.41
2018-06-21T12:34:56.372Z,23.37
2018-06-21T12:35:56.374Z,23.35
2018-06-21T12:36:56.377Z,23.53
2018-06-21T12:37:56.405Z,23.45
2018-06-21T12:38:56.380Z,23.42
2018-06-21T12:39:56.382Z,23.22
2018-06-21T12:40:56.385Z,23.03
2018-06-21T12:41:56.389Z,23.23
2018-06-21T12:42:56.398Z,23.41
2018-06-21T12:43:56.400Z,23.34
2018-06-21T12:44:56.398Z,23.44
2018-06-21T12:45:56.403Z,23.57
2018-06-21T12:46:56.412Z,23.42
2018-06-21T12:47:56.702Z,23.23
2018-06-21T12:48:56.415Z,23.38
2018-06-21T12:49:56.419Z,23.45
2018-06-21T12:50:56.417Z,23.25
2018-06-21T12:51:56.421Z,23.14
2018-06-21T12:52:56.467Z,23.22